sensor_id;sensor_type;location;lat;lon;timestamp;temperature;humidity
72650;SHT31;61467;50.674;4.618;2022-10-16T00:00:45;14.95;77.21
72650;SHT31;61467;50.674;4.618;2022-10-16T00:03:12;14.81;77.69
72650;SHT31;61467;50.674;4.618;2022-10-16T00:05:40;14.95;77.27
72650;SHT31;61467;50.674;4.618;2022-10-16T00:08:07;14.75;78.00
72650;SHT31;61467;50.674;4.618;2022-10-16T00:10:35;14.78;78.21
72650;SHT31;61467;50.674;4.618;2022-10-16T00:13:02;14.88;77.52
72650;SHT31;61467;50.674;4.618;2022-10-16T00:15:29;14.77;78.12
72650;SHT31;61467;50.674;4.618;2022-10-16T00:17:57;14.67;78.51
72650;SHT31;61467;50.674;4.618;2022-10-16T00:20:23;14.71;78.94
72650;SHT31;61467;50.674;4.618;2022-10-16T00:22:50;14.56;79.06
72650;SHT31;61467;50.674;4.618;2022-10-16T00:25:17;14.60;78.94
72650;SHT31;61467;50.674;4.618;2022-10-16T00:27:43;14.59;79.27
72650;SHT31;61467;50.674;4.618;2022-10-16T00:30:10;14.64;79.06
72650;SHT31;61467;50.674;4.618;2022-10-16T00:32:37;14.63;78.91
72650;SHT31;61467;50.674;4.618;2022-10-16T00:35:06;14.59;79.44
72650;SHT31;61467;50.674;4.618;2022-10-16T00:37:32;14.59;79.35
72650;SHT31;61467;50.674;4.618;2022-10-16T00:39:59;14.54;79.30
72650;SHT31;61467;50.674;4.618;2022-10-16T00:42:26;14.67;79.23
72650;SHT31;61467;50.674;4.618;2022-10-16T00:44:54;14.74;78.96
72650;SHT31;61467;50.674;4.618;2022-10-16T00:47:25;14.77;78.77
72650;SHT31;61467;50.674;4.618;2022-10-16T00:49:57;14.73;79.02
72650;SHT31;61467;50.674;4.618;2022-10-16T00:52:26;14.82;78.70
72650;SHT31;61467;50.674;4.618;2022-10-16T00:54:54;14.75;79.00
72650;SHT31;61467;50.674;4.618;2022-10-16T00:57:22;14.61;79.52
72650;SHT31;61467;50.674;4.618;2022-10-16T00:59:49;14.53;79.36
72650;SHT31;61467;50.674;4.618;2022-10-16T01:02:16;14.60;79.70
72650;SHT31;61467;50.674;4.618;2022-10-16T01:04:46;14.50;79.83
72650;SHT31;61467;50.674;4.618;2022-10-16T01:07:20;14.56;79.89
72650;SHT31;61467;50.674;4.618;2022-10-16T01:10:03;14.34;80.48
72650;SHT31;61467;50.674;4.618;2022-10-16T01:12:39;14.43;80.31
72650;SHT31;61467;50.674;4.618;2022-10-16T01:15:11;14.32;80.69
72650;SHT31;61467;50.674;4.618;2022-10-16T01:17:44;14.47;80.06
72650;SHT31;61467;50.674;4.618;2022-10-16T01:20:20;14.50;79.82
72650;SHT31;61467;50.674;4.618;2022-10-16T01:22:59;14.47;79.95
72650;SHT31;61467;50.674;4.618;2022-10-16T01:28:20;14.57;79.95
72650;SHT31;61467;50.674;4.618;2022-10-16T01:30:52;14.59;79.82
72650;SHT31;61467;50.674;4.618;2022-10-16T01:33:22;14.59;79.89
72650;SHT31;61467;50.674;4.618;2022-10-16T01:35:53;14.56;80.02
72650;SHT31;61467;50.674;4.618;2022-10-16T01:38:26;14.38;80.73
72650;SHT31;61467;50.674;4.618;2022-10-16T01:41:00;14.41;80.59
72650;SHT31;61467;50.674;4.618;2022-10-16T01:43:33;14.45;80.38
72650;SHT31;61467;50.674;4.618;2022-10-16T01:46:02;14.50;80.34
72650;SHT31;61467;50.674;4.618;2022-10-16T01:48:29;14.44;80.54
72650;SHT31;61467;50.674;4.618;2022-10-16T01:51:02;14.50;80.20
72650;SHT31;61467;50.674;4.618;2022-10-16T01:53:30;14.51;80.35
72650;SHT31;61467;50.674;4.618;2022-10-16T01:55:59;14.61;80.15
72650;SHT31;61467;50.674;4.618;2022-10-16T01:58:29;14.43;80.76
72650;SHT31;61467;50.674;4.618;2022-10-16T02:01:01;14.41;80.99
72650;SHT31;61467;50.674;4.618;2022-10-16T02:03:28;14.27;81.55
72650;SHT31;61467;50.674;4.618;2022-10-16T02:05:56;14.06;82.00
72650;SHT31;61467;50.674;4.618;2022-10-16T02:08:26;14.33;81.38
72650;SHT31;61467;50.674;4.618;2022-10-16T02:10:54;14.22;81.75
72650;SHT31;61467;50.674;4.618;2022-10-16T02:13:26;14.37;81.11
72650;SHT31;61467;50.674;4.618;2022-10-16T02:15:55;14.51;80.84
72650;SHT31;61467;50.674;4.618;2022-10-16T02:18:22;14.41;80.97
72650;SHT31;61467;50.674;4.618;2022-10-16T02:20:54;14.47;80.61
72650;SHT31;61467;50.674;4.618;2022-10-16T02:23:29;14.50;80.47
72650;SHT31;61467;50.674;4.618;2022-10-16T02:26:02;14.47;80.72
72650;SHT31;61467;50.674;4.618;2022-10-16T02:28:35;14.44;80.73
72650;SHT31;61467;50.674;4.618;2022-10-16T02:31:08;14.44;80.84
72650;SHT31;61467;50.674;4.618;2022-10-16T02:33:38;14.47;80.87
72650;SHT31;61467;50.674;4.618;2022-10-16T02:36:07;14.47;80.93
72650;SHT31;61467;50.674;4.618;2022-10-16T02:38:34;14.53;80.71
72650;SHT31;61467;50.674;4.618;2022-10-16T02:41:02;14.56;80.59
72650;SHT31;61467;50.674;4.618;2022-10-16T02:43:29;14.54;80.65
72650;SHT31;61467;50.674;4.618;2022-10-16T02:45:56;14.53;80.85
72650;SHT31;61467;50.674;4.618;2022-10-16T02:48:24;14.47;81.14
72650;SHT31;61467;50.674;4.618;2022-10-16T02:50:51;14.45;81.31
72650;SHT31;61467;50.674;4.618;2022-10-16T02:53:17;14.41;81.16
72650;SHT31;61467;50.674;4.618;2022-10-16T02:55:44;14.26;81.88
72650;SHT31;61467;50.674;4.618;2022-10-16T02:58:11;14.40;81.44
72650;SHT31;61467;50.674;4.618;2022-10-16T03:00:37;14.36;81.48
72650;SHT31;61467;50.674;4.618;2022-10-16T03:03:04;14.40;81.15
72650;SHT31;61467;50.674;4.618;2022-10-16T03:05:32;14.41;81.41
72650;SHT31;61467;50.674;4.618;2022-10-16T03:07:59;14.38;81.37
72650;SHT31;61467;50.674;4.618;2022-10-16T03:10:26;14.43;81.36
72650;SHT31;61467;50.674;4.618;2022-10-16T03:12:52;14.37;81.61
72650;SHT31;61467;50.674;4.618;2022-10-16T03:15:19;14.32;82.05
72650;SHT31;61467;50.674;4.618;2022-10-16T03:17:46;14.16;82.48
72650;SHT31;61467;50.674;4.618;2022-10-16T03:20:12;14.27;82.18
72650;SHT31;61467;50.674;4.618;2022-10-16T03:22:40;14.33;81.74
72650;SHT31;61467;50.674;4.618;2022-10-16T03:25:07;14.29;82.23
72650;SHT31;61467;50.674;4.618;2022-10-16T03:27:34;14.20;82.56
72650;SHT31;61467;50.674;4.618;2022-10-16T03:30:01;14.23;82.54
72650;SHT31;61467;50.674;4.618;2022-10-16T03:32:27;14.34;82.13
72650;SHT31;61467;50.674;4.618;2022-10-16T03:34:54;14.24;82.22
72650;SHT31;61467;50.674;4.618;2022-10-16T03:37:22;14.16;82.68
72650;SHT31;61467;50.674;4.618;2022-10-16T03:39:50;14.13;82.79
72650;SHT31;61467;50.674;4.618;2022-10-16T03:42:17;14.24;82.62
72650;SHT31;61467;50.674;4.618;2022-10-16T03:44:43;14.23;82.42
72650;SHT31;61467;50.674;4.618;2022-10-16T03:47:10;14.34;82.32
72650;SHT31;61467;50.674;4.618;2022-10-16T03:49:37;14.23;82.50
72650;SHT31;61467;50.674;4.618;2022-10-16T03:52:03;14.24;82.47
72650;SHT31;61467;50.674;4.618;2022-10-16T03:54:30;14.29;82.38
72650;SHT31;61467;50.674;4.618;2022-10-16T03:56:58;14.27;82.39
72650;SHT31;61467;50.674;4.618;2022-10-16T03:59:25;14.19;82.84
72650;SHT31;61467;50.674;4.618;2022-10-16T04:01:51;14.22;82.80
72650;SHT31;61467;50.674;4.618;2022-10-16T04:04:18;14.14;83.18
72650;SHT31;61467;50.674;4.618;2022-10-16T04:06:45;14.09;83.23
72650;SHT31;61467;50.674;4.618;2022-10-16T04:09:12;14.13;83.25
72650;SHT31;61467;50.674;4.618;2022-10-16T04:11:38;14.02;83.57
72650;SHT31;61467;50.674;4.618;2022-10-16T04:14:06;14.10;83.32
72650;SHT31;61467;50.674;4.618;2022-10-16T04:16:33;14.05;83.44
72650;SHT31;61467;50.674;4.618;2022-10-16T04:19:00;14.13;83.19
72650;SHT31;61467;50.674;4.618;2022-10-16T04:21:26;14.26;82.73
72650;SHT31;61467;50.674;4.618;2022-10-16T04:23:53;14.20;82.88
72650;SHT31;61467;50.674;4.618;2022-10-16T04:26:20;14.19;83.18
72650;SHT31;61467;50.674;4.618;2022-10-16T04:28:47;14.23;82.99
72650;SHT31;61467;50.674;4.618;2022-10-16T04:31:15;14.05;83.60
72650;SHT31;61467;50.674;4.618;2022-10-16T04:33:42;14.10;83.36
72650;SHT31;61467;50.674;4.618;2022-10-16T04:36:09;14.16;83.00
72650;SHT31;61467;50.674;4.618;2022-10-16T04:38:36;14.05;83.67
72650;SHT31;61467;50.674;4.618;2022-10-16T04:41:04;14.10;83.39
72650;SHT31;61467;50.674;4.618;2022-10-16T04:43:31;14.03;83.95
72650;SHT31;61467;50.674;4.618;2022-10-16T04:45:58;13.98;84.15
72650;SHT31;61467;50.674;4.618;2022-10-16T04:48:26;14.03;83.79
72650;SHT31;61467;50.674;4.618;2022-10-16T04:50:53;13.95;84.20
72650;SHT31;61467;50.674;4.618;2022-10-16T04:53:19;14.16;83.41
72650;SHT31;61467;50.674;4.618;2022-10-16T04:55:46;14.05;83.75
72650;SHT31;61467;50.674;4.618;2022-10-16T04:58:13;14.16;83.32
72650;SHT31;61467;50.674;4.618;2022-10-16T05:00:39;13.96;83.92
72650;SHT31;61467;50.674;4.618;2022-10-16T05:03:06;14.05;84.13
72650;SHT31;61467;50.674;4.618;2022-10-16T05:05:35;14.01;83.95
72650;SHT31;61467;50.674;4.618;2022-10-16T05:08:03;13.87;84.33
72650;SHT31;61467;50.674;4.618;2022-10-16T05:10:30;14.12;83.55
72650;SHT31;61467;50.674;4.618;2022-10-16T05:12:56;14.16;84.18
72650;SHT31;61467;50.674;4.618;2022-10-16T05:15:23;14.14;83.63
72650;SHT31;61467;50.674;4.618;2022-10-16T05:17:52;14.10;83.49
72650;SHT31;61467;50.674;4.618;2022-10-16T05:20:19;14.12;83.70
72650;SHT31;61467;50.674;4.618;2022-10-16T05:22:47;13.96;83.82
72650;SHT31;61467;50.674;4.618;2022-10-16T05:25:14;14.09;83.52
72650;SHT31;61467;50.674;4.618;2022-10-16T05:27:41;14.17;83.39
72650;SHT31;61467;50.674;4.618;2022-10-16T05:30:08;14.06;83.88
72650;SHT31;61467;50.674;4.618;2022-10-16T05:32:35;14.23;83.17
72650;SHT31;61467;50.674;4.618;2022-10-16T05:35:01;14.33;83.04
72650;SHT31;61467;50.674;4.618;2022-10-16T05:37:28;14.20;83.06
72650;SHT31;61467;50.674;4.618;2022-10-16T05:39:56;14.34;82.92
72650;SHT31;61467;50.674;4.618;2022-10-16T05:42:23;14.16;83.34
72650;SHT31;61467;50.674;4.618;2022-10-16T05:44:49;14.22;83.23
72650;SHT31;61467;50.674;4.618;2022-10-16T05:47:16;14.13;83.41
72650;SHT31;61467;50.674;4.618;2022-10-16T05:49:43;14.01;83.76
72650;SHT31;61467;50.674;4.618;2022-10-16T05:52:10;14.12;83.59
72650;SHT31;61467;50.674;4.618;2022-10-16T05:54:36;14.03;83.68
72650;SHT31;61467;50.674;4.618;2022-10-16T05:57:04;14.09;83.57
72650;SHT31;61467;50.674;4.618;2022-10-16T05:59:32;14.19;83.40
72650;SHT31;61467;50.674;4.618;2022-10-16T06:01:58;13.90;83.98
72650;SHT31;61467;50.674;4.618;2022-10-16T06:04:25;13.98;83.94
72650;SHT31;61467;50.674;4.618;2022-10-16T06:06:51;14.05;83.72
72650;SHT31;61467;50.674;4.618;2022-10-16T06:09:18;14.10;83.73
72650;SHT31;61467;50.674;4.618;2022-10-16T06:11:45;13.99;84.18
72650;SHT31;61467;50.674;4.618;2022-10-16T06:14:13;13.93;84.40
72650;SHT31;61467;50.674;4.618;2022-10-16T06:16:39;14.02;84.09
72650;SHT31;61467;50.674;4.618;2022-10-16T06:19:06;13.96;84.04
72650;SHT31;61467;50.674;4.618;2022-10-16T06:21:34;13.78;84.76
72650;SHT31;61467;50.674;4.618;2022-10-16T06:24:01;13.75;84.79
72650;SHT31;61467;50.674;4.618;2022-10-16T06:26:30;13.73;84.97
72650;SHT31;61467;50.674;4.618;2022-10-16T06:28:58;14.02;84.26
72650;SHT31;61467;50.674;4.618;2022-10-16T06:31:27;14.01;84.19
72650;SHT31;61467;50.674;4.618;2022-10-16T06:33:56;14.06;83.87
72650;SHT31;61467;50.674;4.618;2022-10-16T06:36:24;14.08;83.80
72650;SHT31;61467;50.674;4.618;2022-10-16T06:38:51;14.08;83.62
72650;SHT31;61467;50.674;4.618;2022-10-16T06:41:19;14.13;83.77
72650;SHT31;61467;50.674;4.618;2022-10-16T06:43:47;14.06;83.74
72650;SHT31;61467;50.674;4.618;2022-10-16T06:46:15;14.12;83.59
72650;SHT31;61467;50.674;4.618;2022-10-16T06:48:44;14.08;83.60
72650;SHT31;61467;50.674;4.618;2022-10-16T06:51:12;14.13;83.74
72650;SHT31;61467;50.674;4.618;2022-10-16T06:53:40;14.14;83.53
72650;SHT31;61467;50.674;4.618;2022-10-16T06:56:08;14.20;83.18
72650;SHT31;61467;50.674;4.618;2022-10-16T06:58:34;14.24;83.18
72650;SHT31;61467;50.674;4.618;2022-10-16T07:01:01;14.34;82.77
72650;SHT31;61467;50.674;4.618;2022-10-16T07:03:28;14.47;82.66
72650;SHT31;61467;50.674;4.618;2022-10-16T07:05:56;14.50;83.06
72650;SHT31;61467;50.674;4.618;2022-10-16T07:08:23;14.87;82.61
72650;SHT31;61467;50.674;4.618;2022-10-16T07:10:58;15.19;80.92
72650;SHT31;61467;50.674;4.618;2022-10-16T07:13:25;15.46;79.52
72650;SHT31;61467;50.674;4.618;2022-10-16T07:15:51;15.66;79.55
72650;SHT31;61467;50.674;4.618;2022-10-16T07:18:18;15.94;78.43
72650;SHT31;61467;50.674;4.618;2022-10-16T07:20:44;15.97;78.06
72650;SHT31;61467;50.674;4.618;2022-10-16T07:23:12;16.28;77.46
72650;SHT31;61467;50.674;4.618;2022-10-16T07:25:40;16.56;77.22
72650;SHT31;61467;50.674;4.618;2022-10-16T07:28:06;16.65;76.49
72650;SHT31;61467;50.674;4.618;2022-10-16T07:30:34;16.62;77.01
72650;SHT31;61467;50.674;4.618;2022-10-16T07:33:01;16.69;76.39
72650;SHT31;61467;50.674;4.618;2022-10-16T07:35:28;16.93;75.08
72650;SHT31;61467;50.674;4.618;2022-10-16T07:37:55;17.00;75.49
72650;SHT31;61467;50.674;4.618;2022-10-16T07:40:23;17.07;74.40
72650;SHT31;61467;50.674;4.618;2022-10-16T07:42:52;17.10;74.43
72650;SHT31;61467;50.674;4.618;2022-10-16T07:45:19;17.03;75.03
72650;SHT31;61467;50.674;4.618;2022-10-16T07:47:45;17.09;74.61
72650;SHT31;61467;50.674;4.618;2022-10-16T07:50:12;17.26;74.33
72650;SHT31;61467;50.674;4.618;2022-10-16T07:52:39;17.27;74.26
72650;SHT31;61467;50.674;4.618;2022-10-16T07:55:07;17.28;74.07
72650;SHT31;61467;50.674;4.618;2022-10-16T07:57:35;17.16;74.55
72650;SHT31;61467;50.674;4.618;2022-10-16T08:00:03;17.41;73.76
72650;SHT31;61467;50.674;4.618;2022-10-16T08:02:29;17.45;73.69
72650;SHT31;61467;50.674;4.618;2022-10-16T08:04:57;17.43;73.96
72650;SHT31;61467;50.674;4.618;2022-10-16T08:07:24;17.41;73.32
72650;SHT31;61467;50.674;4.618;2022-10-16T08:09:50;17.71;72.70
72650;SHT31;61467;50.674;4.618;2022-10-16T08:12:17;17.62;72.95
72650;SHT31;61467;50.674;4.618;2022-10-16T08:14:45;17.71;72.90
72650;SHT31;61467;50.674;4.618;2022-10-16T08:17:14;17.51;73.59
72650;SHT31;61467;50.674;4.618;2022-10-16T08:19:44;17.75;72.71
72650;SHT31;61467;50.674;4.618;2022-10-16T08:22:11;17.72;72.46
72650;SHT31;61467;50.674;4.618;2022-10-16T08:24:38;17.92;72.05
72650;SHT31;61467;50.674;4.618;2022-10-16T08:27:05;17.67;72.22
72650;SHT31;61467;50.674;4.618;2022-10-16T08:29:32;17.88;72.00
72650;SHT31;61467;50.674;4.618;2022-10-16T08:32:00;17.91;71.89
72650;SHT31;61467;50.674;4.618;2022-10-16T08:34:26;17.75;72.31
72650;SHT31;61467;50.674;4.618;2022-10-16T08:36:53;17.50;72.58
72650;SHT31;61467;50.674;4.618;2022-10-16T08:39:20;17.57;72.18
72650;SHT31;61467;50.674;4.618;2022-10-16T08:42:23;17.38;73.58
72650;SHT31;61467;50.674;4.618;2022-10-16T08:45:19;17.48;72.85
72650;SHT31;61467;50.674;4.618;2022-10-16T08:47:57;17.60;72.75
72650;SHT31;61467;50.674;4.618;2022-10-16T08:50:29;17.28;72.90
72650;SHT31;61467;50.674;4.618;2022-10-16T08:52:56;17.27;73.15
72650;SHT31;61467;50.674;4.618;2022-10-16T08:55:30;17.38;73.30
72650;SHT31;61467;50.674;4.618;2022-10-16T08:57:57;17.72;72.16
72650;SHT31;61467;50.674;4.618;2022-10-16T09:00:24;17.28;73.37
72650;SHT31;61467;50.674;4.618;2022-10-16T09:03:00;17.60;72.62
72650;SHT31;61467;50.674;4.618;2022-10-16T09:05:59;17.52;72.97
72650;SHT31;61467;50.674;4.618;2022-10-16T09:08:38;17.48;72.69
72650;SHT31;61467;50.674;4.618;2022-10-16T09:11:14;17.43;73.20
72650;SHT31;61467;50.674;4.618;2022-10-16T09:13:48;17.62;72.21
72650;SHT31;61467;50.674;4.618;2022-10-16T09:16:19;17.64;71.84
72650;SHT31;61467;50.674;4.618;2022-10-16T09:18:56;17.52;71.60
72650;SHT31;61467;50.674;4.618;2022-10-16T09:21:28;17.50;72.27
72650;SHT31;61467;50.674;4.618;2022-10-16T09:23:58;17.88;71.59
72650;SHT31;61467;50.674;4.618;2022-10-16T09:26:26;17.91;70.36
72650;SHT31;61467;50.674;4.618;2022-10-16T09:28:53;18.17;69.87
72650;SHT31;61467;50.674;4.618;2022-10-16T09:31:21;18.05;69.10
72650;SHT31;61467;50.674;4.618;2022-10-16T09:33:52;18.47;68.88
72650;SHT31;61467;50.674;4.618;2022-10-16T09:36:20;18.34;68.83
72650;SHT31;61467;50.674;4.618;2022-10-16T09:38:48;18.28;69.82
72650;SHT31;61467;50.674;4.618;2022-10-16T09:41:18;18.01;69.23
72650;SHT31;61467;50.674;4.618;2022-10-16T09:43:53;18.40;68.21
72650;SHT31;61467;50.674;4.618;2022-10-16T09:46:25;18.39;67.88
72650;SHT31;61467;50.674;4.618;2022-10-16T09:48:54;18.56;68.38
72650;SHT31;61467;50.674;4.618;2022-10-16T09:51:25;18.54;67.94
72650;SHT31;61467;50.674;4.618;2022-10-16T09:53:55;18.49;67.10
72650;SHT31;61467;50.674;4.618;2022-10-16T09:56:24;18.51;67.27
72650;SHT31;61467;50.674;4.618;2022-10-16T09:58:52;18.65;67.58
72650;SHT31;61467;50.674;4.618;2022-10-16T10:01:19;18.61;66.77
72650;SHT31;61467;50.674;4.618;2022-10-16T10:03:47;18.85;67.72
72650;SHT31;61467;50.674;4.618;2022-10-16T10:06:20;19.00;67.16
72650;SHT31;61467;50.674;4.618;2022-10-16T10:08:59;18.94;66.34
72650;SHT31;61467;50.674;4.618;2022-10-16T10:11:44;19.16;66.56
72650;SHT31;61467;50.674;4.618;2022-10-16T10:14:26;19.16;66.00
72650;SHT31;61467;50.674;4.618;2022-10-16T10:17:13;19.05;65.68
72650;SHT31;61467;50.674;4.618;2022-10-16T10:19:42;19.19;65.82
72650;SHT31;61467;50.674;4.618;2022-10-16T10:22:21;19.35;65.17
72650;SHT31;61467;50.674;4.618;2022-10-16T10:24:56;19.58;64.85
72650;SHT31;61467;50.674;4.618;2022-10-16T10:27:31;19.52;64.87
72650;SHT31;61467;50.674;4.618;2022-10-16T10:30:01;19.72;64.26
72650;SHT31;61467;50.674;4.618;2022-10-16T10:32:36;19.76;63.72
72650;SHT31;61467;50.674;4.618;2022-10-16T10:35:13;19.79;63.08
72650;SHT31;61467;50.674;4.618;2022-10-16T10:37:51;19.74;63.03
72650;SHT31;61467;50.674;4.618;2022-10-16T10:40:30;19.53;62.21
72650;SHT31;61467;50.674;4.618;2022-10-16T10:43:04;19.60;63.33
72650;SHT31;61467;50.674;4.618;2022-10-16T10:45:41;19.60;63.06
72650;SHT31;61467;50.674;4.618;2022-10-16T10:48:32;19.52;61.55
72650;SHT31;61467;50.674;4.618;2022-10-16T10:51:09;19.38;62.03
72650;SHT31;61467;50.674;4.618;2022-10-16T10:53:45;19.49;61.78
72650;SHT31;61467;50.674;4.618;2022-10-16T10:56:23;19.49;61.23
72650;SHT31;61467;50.674;4.618;2022-10-16T10:59:11;19.31;62.35
72650;SHT31;61467;50.674;4.618;2022-10-16T11:01:46;19.58;62.90
72650;SHT31;61467;50.674;4.618;2022-10-16T11:04:47;19.63;61.81
72650;SHT31;61467;50.674;4.618;2022-10-16T11:07:19;19.91;61.74
72650;SHT31;61467;50.674;4.618;2022-10-16T11:09:52;19.86;61.08
72650;SHT31;61467;50.674;4.618;2022-10-16T11:12:25;19.97;60.83
72650;SHT31;61467;50.674;4.618;2022-10-16T11:14:58;20.32;60.19
72650;SHT31;61467;50.674;4.618;2022-10-16T11:17:30;20.44;60.10
72650;SHT31;61467;50.674;4.618;2022-10-16T11:20:02;20.40;57.37
72650;SHT31;61467;50.674;4.618;2022-10-16T11:22:34;20.55;59.23
72650;SHT31;61467;50.674;4.618;2022-10-16T11:25:11;20.64;58.35
72650;SHT31;61467;50.674;4.618;2022-10-16T11:27:41;20.48;58.14
72650;SHT31;61467;50.674;4.618;2022-10-16T11:30:16;20.67;59.70
72650;SHT31;61467;50.674;4.618;2022-10-16T11:32:56;20.53;57.62
72650;SHT31;61467;50.674;4.618;2022-10-16T11:35:41;20.52;57.94
72650;SHT31;61467;50.674;4.618;2022-10-16T11:38:15;20.79;57.12
72650;SHT31;61467;50.674;4.618;2022-10-16T11:40:53;20.96;57.65
72650;SHT31;61467;50.674;4.618;2022-10-16T11:43:26;21.03;57.56
72650;SHT31;61467;50.674;4.618;2022-10-16T11:45:58;20.95;57.99
72650;SHT31;61467;50.674;4.618;2022-10-16T11:48:32;21.00;57.35
72650;SHT31;61467;50.674;4.618;2022-10-16T11:51:09;20.95;58.06
72650;SHT31;61467;50.674;4.618;2022-10-16T11:53:44;20.99;56.89
72650;SHT31;61467;50.674;4.618;2022-10-16T11:56:14;20.96;57.53
72650;SHT31;61467;50.674;4.618;2022-10-16T11:58:51;21.02;58.14
72650;SHT31;61467;50.674;4.618;2022-10-16T12:01:25;20.82;57.73
72650;SHT31;61467;50.674;4.618;2022-10-16T12:04:05;21.06;57.87
72650;SHT31;61467;50.674;4.618;2022-10-16T12:06:37;21.07;59.14
72650;SHT31;61467;50.674;4.618;2022-10-16T12:09:05;21.23;58.06
72650;SHT31;61467;50.674;4.618;2022-10-16T12:11:37;21.22;57.50
72650;SHT31;61467;50.674;4.618;2022-10-16T12:14:18;21.19;56.66
72650;SHT31;61467;50.674;4.618;2022-10-16T12:16:52;20.95;57.47
72650;SHT31;61467;50.674;4.618;2022-10-16T12:19:20;20.82;56.80
72650;SHT31;61467;50.674;4.618;2022-10-16T12:21:48;20.90;58.02
72650;SHT31;61467;50.674;4.618;2022-10-16T12:24:31;20.88;58.28
72650;SHT31;61467;50.674;4.618;2022-10-16T12:27:00;20.85;57.89
72650;SHT31;61467;50.674;4.618;2022-10-16T12:29:34;20.85;57.34
72650;SHT31;61467;50.674;4.618;2022-10-16T12:32:03;20.72;57.62
72650;SHT31;61467;50.674;4.618;2022-10-16T12:34:36;20.78;58.00
72650;SHT31;61467;50.674;4.618;2022-10-16T12:37:10;20.75;57.62
72650;SHT31;61467;50.674;4.618;2022-10-16T12:39:37;20.75;57.19
72650;SHT31;61467;50.674;4.618;2022-10-16T12:42:21;20.69;58.28
72650;SHT31;61467;50.674;4.618;2022-10-16T12:44:48;20.61;57.38
72650;SHT31;61467;50.674;4.618;2022-10-16T12:47:23;20.62;57.14
72650;SHT31;61467;50.674;4.618;2022-10-16T12:50:01;20.67;57.04
72650;SHT31;61467;50.674;4.618;2022-10-16T12:52:34;20.65;58.08
72650;SHT31;61467;50.674;4.618;2022-10-16T12:55:03;20.71;57.21
72650;SHT31;61467;50.674;4.618;2022-10-16T12:57:40;20.69;56.44
72650;SHT31;61467;50.674;4.618;2022-10-16T13:00:18;20.65;57.25
72650;SHT31;61467;50.674;4.618;2022-10-16T13:06:01;20.58;58.03
72650;SHT31;61467;50.674;4.618;2022-10-16T13:08:43;20.53;58.36
72650;SHT31;61467;50.674;4.618;2022-10-16T13:11:18;20.59;58.25
72650;SHT31;61467;50.674;4.618;2022-10-16T13:14:08;20.53;57.05
72650;SHT31;61467;50.674;4.618;2022-10-16T13:16:50;20.47;56.92
72650;SHT31;61467;50.674;4.618;2022-10-16T13:19:24;20.49;56.17
72650;SHT31;61467;50.674;4.618;2022-10-16T13:22:00;20.38;56.88
72650;SHT31;61467;50.674;4.618;2022-10-16T13:24:45;20.38;57.33
72650;SHT31;61467;50.674;4.618;2022-10-16T13:27:23;20.42;56.59
72650;SHT31;61467;50.674;4.618;2022-10-16T13:30:01;20.45;56.95
72650;SHT31;61467;50.674;4.618;2022-10-16T13:32:28;20.45;57.57
72650;SHT31;61467;50.674;4.618;2022-10-16T13:34:55;20.41;57.13
72650;SHT31;61467;50.674;4.618;2022-10-16T13:37:23;20.40;56.99
72650;SHT31;61467;50.674;4.618;2022-10-16T13:39:50;20.44;56.69
72650;SHT31;61467;50.674;4.618;2022-10-16T13:42:22;20.48;57.43
72650;SHT31;61467;50.674;4.618;2022-10-16T13:44:52;20.65;57.32
72650;SHT31;61467;50.674;4.618;2022-10-16T13:47:22;20.61;56.76
72650;SHT31;61467;50.674;4.618;2022-10-16T13:49:59;20.51;56.26
72650;SHT31;61467;50.674;4.618;2022-10-16T13:52:26;20.49;56.64
72650;SHT31;61467;50.674;4.618;2022-10-16T13:54:52;20.55;56.37
72650;SHT31;61467;50.674;4.618;2022-10-16T13:57:22;20.41;57.23
72650;SHT31;61467;50.674;4.618;2022-10-16T13:59:50;20.47;56.16
72650;SHT31;61467;50.674;4.618;2022-10-16T14:02:25;20.37;57.58
72650;SHT31;61467;50.674;4.618;2022-10-16T14:04:53;20.32;57.26
72650;SHT31;61467;50.674;4.618;2022-10-16T14:07:24;20.35;57.64
72650;SHT31;61467;50.674;4.618;2022-10-16T14:09:52;20.34;57.49
72650;SHT31;61467;50.674;4.618;2022-10-16T14:12:20;20.28;58.42
72650;SHT31;61467;50.674;4.618;2022-10-16T14:14:51;20.37;57.82
72650;SHT31;61467;50.674;4.618;2022-10-16T14:17:21;20.31;59.13
72650;SHT31;61467;50.674;4.618;2022-10-16T14:19:51;20.24;59.56
72650;SHT31;61467;50.674;4.618;2022-10-16T14:22:27;20.10;59.41
72650;SHT31;61467;50.674;4.618;2022-10-16T14:24:55;20.10;60.13
72650;SHT31;61467;50.674;4.618;2022-10-16T14:27:28;20.07;60.21
72650;SHT31;61467;50.674;4.618;2022-10-16T14:30:12;20.09;60.62
72650;SHT31;61467;50.674;4.618;2022-10-16T14:32:40;20.13;61.08
72650;SHT31;61467;50.674;4.618;2022-10-16T14:35:22;19.97;62.00
72650;SHT31;61467;50.674;4.618;2022-10-16T14:37:53;19.98;62.34
72650;SHT31;61467;50.674;4.618;2022-10-16T14:40:23;20.01;61.80
72650;SHT31;61467;50.674;4.618;2022-10-16T14:42:50;20.07;61.92
72650;SHT31;61467;50.674;4.618;2022-10-16T14:45:20;20.09;61.95
72650;SHT31;61467;50.674;4.618;2022-10-16T14:47:49;20.04;62.08
72650;SHT31;61467;50.674;4.618;2022-10-16T14:50:18;20.01;62.59
72650;SHT31;61467;50.674;4.618;2022-10-16T14:52:45;20.03;62.67
72650;SHT31;61467;50.674;4.618;2022-10-16T14:55:12;20.03;62.88
72650;SHT31;61467;50.674;4.618;2022-10-16T14:57:39;19.98;63.36
72650;SHT31;61467;50.674;4.618;2022-10-16T15:00:12;20.01;62.98
72650;SHT31;61467;50.674;4.618;2022-10-16T15:02:40;19.97;63.50
72650;SHT31;61467;50.674;4.618;2022-10-16T15:05:12;20.09;63.69
72650;SHT31;61467;50.674;4.618;2022-10-16T15:07:41;19.98;63.77
72650;SHT31;61467;50.674;4.618;2022-10-16T15:10:08;19.94;64.12
72650;SHT31;61467;50.674;4.618;2022-10-16T15:12:35;19.94;63.54
72650;SHT31;61467;50.674;4.618;2022-10-16T15:15:05;19.83;63.55
72650;SHT31;61467;50.674;4.618;2022-10-16T15:17:41;19.79;63.49
72650;SHT31;61467;50.674;4.618;2022-10-16T15:20:08;19.87;63.66
72650;SHT31;61467;50.674;4.618;2022-10-16T15:22:35;19.72;63.96
72650;SHT31;61467;50.674;4.618;2022-10-16T15:25:10;19.72;64.35
72650;SHT31;61467;50.674;4.618;2022-10-16T15:27:42;19.76;64.81
72650;SHT31;61467;50.674;4.618;2022-10-16T15:30:10;19.70;65.24
72650;SHT31;61467;50.674;4.618;2022-10-16T15:32:36;19.80;65.14
72650;SHT31;61467;50.674;4.618;2022-10-16T15:35:04;19.76;65.32
72650;SHT31;61467;50.674;4.618;2022-10-16T15:37:31;19.81;65.52
72650;SHT31;61467;50.674;4.618;2022-10-16T15:39:57;19.84;65.53
72650;SHT31;61467;50.674;4.618;2022-10-16T15:42:25;19.73;65.76
72650;SHT31;61467;50.674;4.618;2022-10-16T15:44:52;19.73;65.89
72650;SHT31;61467;50.674;4.618;2022-10-16T15:47:19;19.77;65.77
72650;SHT31;61467;50.674;4.618;2022-10-16T15:49:46;19.73;65.66
72650;SHT31;61467;50.674;4.618;2022-10-16T15:52:12;19.73;65.65
72650;SHT31;61467;50.674;4.618;2022-10-16T15:54:40;19.56;66.37